< < Back
Terminal Aerodrome Forecast


Current Version              Previous Versions:   1  2  3  4  5  6  7  8  9  

Terminal Aerodrome Forecast

419
FTUS42 KGSP 261120
TAFGSP
TAF
KGSP 261120Z 2612/2712 23007KT P6SM FEW100
     FM261400 27005KT P6SM SCT060 BKN100
     FM261800 32010G17KT P6SM BKN060
     FM262200 32010G17KT P6SM SCT250
     FM270700 30006KT P6SM SCT250=

Latest METAR

575
SAUS70 KWBC 261600 RRB
MTRGSP
METAR KGSP 261553Z 28009KT 10SM SCT055 BKN080 11/03 A2968 RMK AO2 SLP048
T01060028


USA.gov is the U.S. government's official web portal to all federal, state and local government web resources and services.